createdAt,value
2019-01-29T00:02:15.940Z,18.80
2019-01-29T00:04:46.801Z,17.87
2019-01-29T00:07:17.209Z,15.37
2019-01-29T00:09:47.164Z,17.13
2019-01-29T00:12:17.701Z,18.07
2019-01-29T00:14:47.580Z,17.70
2019-01-29T00:17:17.484Z,19.20
2019-01-29T00:19:47.380Z,18.43
2019-01-29T00:22:17.432Z,19.37
2019-01-29T00:24:47.354Z,21.30
2019-01-29T00:27:17.751Z,18.87
2019-01-29T00:29:47.623Z,18.13
2019-01-29T00:32:17.831Z,20.90
2019-01-29T00:34:48.210Z,20.97
2019-01-29T00:37:18.122Z,21.63
2019-01-29T00:39:48.235Z,24.20
2019-01-29T00:42:18.119Z,23.13
2019-01-29T00:44:48.513Z,23.83
2019-01-29T00:47:18.449Z,22.17
2019-01-29T00:49:48.396Z,25.40
2019-01-29T00:52:18.738Z,23.00
2019-01-29T00:54:48.613Z,23.33
2019-01-29T00:57:18.489Z,20.93
2019-01-29T00:59:48.602Z,19.50
2019-01-29T01:02:18.726Z,16.27
2019-01-29T01:04:48.609Z,15.43
2019-01-29T01:07:18.551Z,13.17
2019-01-29T01:09:56.837Z,11.97
2019-01-29T01:12:20.061Z,8.13
2019-01-29T01:14:50.232Z,8.77
2019-01-29T01:17:20.330Z,8.37
2019-01-29T01:19:50.389Z,10.60
2019-01-29T01:22:20.601Z,7.70
2019-01-29T01:24:50.495Z,9.80
2019-01-29T01:27:20.743Z,10.03
2019-01-29T01:29:50.645Z,10.77
2019-01-29T01:32:20.804Z,12.50
2019-01-29T01:34:50.998Z,12.10
2019-01-29T01:37:20.896Z,11.40
2019-01-29T01:39:50.988Z,13.13
2019-01-29T01:42:21.206Z,12.43
2019-01-29T01:44:51.129Z,14.17
2019-01-29T01:47:21.253Z,12.37
2019-01-29T01:49:51.126Z,12.70
2019-01-29T01:52:21.345Z,12.70
2019-01-29T01:54:51.204Z,12.47
2019-01-29T01:57:21.088Z,13.13
2019-01-29T01:59:50.986Z,11.97
2019-01-29T02:02:20.874Z,11.47
2019-01-29T02:04:50.765Z,11.67
2019-01-29T02:07:20.659Z,12.13
2019-01-29T02:09:50.810Z,9.93
2019-01-29T02:12:20.681Z,11.03
2019-01-29T02:14:50.633Z,10.40
2019-01-29T02:17:20.785Z,10.77
2019-01-29T02:19:50.672Z,10.37
2019-01-29T02:22:20.775Z,10.63
2019-01-29T02:24:50.902Z,10.00
2019-01-29T02:27:20.825Z,9.03
2019-01-29T02:29:50.899Z,8.63
2019-01-29T02:32:21.043Z,8.80
2019-01-29T02:34:50.921Z,7.90
2019-01-29T02:37:20.800Z,8.80
2019-01-29T02:39:51.019Z,8.47
2019-01-29T02:42:21.212Z,7.80
2019-01-29T02:44:51.427Z,8.83
2019-01-29T02:47:21.336Z,7.17
2019-01-29T02:49:51.238Z,9.03
2019-01-29T02:52:21.152Z,8.47
2019-01-29T02:54:51.016Z,7.60
2019-01-29T02:57:21.208Z,9.23
2019-01-29T02:59:51.175Z,9.70
2019-01-29T03:02:21.312Z,8.33
2019-01-29T03:04:53.384Z,8.33
2019-01-29T03:07:23.140Z,8.87
2019-01-29T03:09:53.013Z,8.77
2019-01-29T03:12:22.901Z,8.23
2019-01-29T03:14:52.991Z,7.73
2019-01-29T03:17:23.131Z,8.60
2019-01-29T03:19:53.029Z,8.30
2019-01-29T03:22:23.028Z,8.47
2019-01-29T03:24:52.908Z,8.47
2019-01-29T03:27:23.035Z,7.80
2019-01-29T03:29:53.282Z,9.17
2019-01-29T03:32:23.272Z,9.47
2019-01-29T03:34:53.241Z,9.60
2019-01-29T03:37:23.207Z,9.67
2019-01-29T03:39:53.104Z,10.50
2019-01-29T03:42:22.980Z,9.77
2019-01-29T03:44:53.296Z,10.70
2019-01-29T03:47:23.179Z,9.63
2019-01-29T03:49:53.605Z,11.13
2019-01-29T03:52:24.033Z,12.10
2019-01-29T03:54:54.257Z,10.70
2019-01-29T03:57:24.157Z,10.70
2019-01-29T03:59:54.422Z,10.67
2019-01-29T04:02:24.537Z,10.67
2019-01-29T04:04:54.425Z,11.37
2019-01-29T04:07:24.649Z,12.47
2019-01-29T04:09:54.842Z,11.17
2019-01-29T04:12:24.976Z,11.50
2019-01-29T04:14:54.866Z,11.17
2019-01-29T04:17:24.767Z,11.33
2019-01-29T04:19:55.003Z,12.93
2019-01-29T04:22:24.876Z,13.17
2019-01-29T04:24:54.887Z,13.07
2019-01-29T04:27:24.778Z,12.73
2019-01-29T04:29:54.678Z,12.90
2019-01-29T04:32:24.831Z,14.37
2019-01-29T04:34:54.732Z,13.03
2019-01-29T04:37:24.618Z,14.20
2019-01-29T04:39:54.503Z,13.60
2019-01-29T04:42:24.399Z,12.77
2019-01-29T04:44:54.286Z,14.47
2019-01-29T04:47:24.288Z,13.37
2019-01-29T04:49:54.544Z,12.00
2019-01-29T04:52:24.622Z,12.53
2019-01-29T04:54:54.521Z,13.03
2019-01-29T04:57:24.393Z,12.47
2019-01-29T04:59:54.507Z,11.17
2019-01-29T05:02:24.879Z,24.33
2019-01-29T05:04:54.767Z,13.33
2019-01-29T05:07:24.747Z,12.10
2019-01-29T05:09:54.817Z,9.77
2019-01-29T05:12:25.011Z,9.83
2019-01-29T05:14:54.939Z,13.47
2019-01-29T05:17:24.798Z,11.27
2019-01-29T05:19:54.678Z,10.63
2019-01-29T05:22:24.794Z,11.77
2019-01-29T05:24:54.676Z,11.80
2019-01-29T05:27:24.793Z,12.20
2019-01-29T05:29:54.664Z,12.20
2019-01-29T05:32:24.776Z,12.50
2019-01-29T05:34:54.877Z,11.00
2019-01-29T05:37:24.960Z,10.10
2019-01-29T05:39:54.827Z,10.57
2019-01-29T05:42:24.723Z,13.10
2019-01-29T05:44:54.830Z,11.57
2019-01-29T05:47:24.786Z,8.90
2019-01-29T05:49:54.972Z,12.00
2019-01-29T05:52:24.868Z,13.13
2019-01-29T05:54:54.807Z,10.87
2019-01-29T05:57:24.669Z,9.50
2019-01-29T05:59:54.587Z,11.23
2019-01-29T06:02:24.959Z,10.27
2019-01-29T06:04:54.873Z,10.03
2019-01-29T06:07:25.074Z,9.07
2019-01-29T06:09:55.110Z,9.50
2019-01-29T06:12:25.509Z,10.13
2019-01-29T06:14:55.429Z,10.10
2019-01-29T06:17:27.450Z,9.20
2019-01-29T06:19:57.118Z,9.57
2019-01-29T06:22:27.451Z,11.17
2019-01-29T06:24:57.540Z,10.00
2019-01-29T06:27:27.678Z,9.33
2019-01-29T06:29:57.555Z,9.90
2019-01-29T06:32:27.511Z,9.53
2019-01-29T06:34:57.684Z,8.93
2019-01-29T06:37:27.626Z,9.97
2019-01-29T06:39:57.585Z,9.37
2019-01-29T06:42:27.764Z,8.30
2019-01-29T06:44:58.122Z,8.30
2019-01-29T06:47:28.107Z,8.03
2019-01-29T06:49:58.068Z,11.03
2019-01-29T06:52:28.088Z,9.37
2019-01-29T06:54:58.000Z,9.53
2019-01-29T06:57:27.893Z,9.03
2019-01-29T06:59:57.788Z,9.00
2019-01-29T07:02:27.781Z,9.17
2019-01-29T07:04:58.048Z,12.17
2019-01-29T07:07:27.927Z,7.10
2019-01-29T07:09:57.861Z,8.23
2019-01-29T07:12:27.806Z,9.80
2019-01-29T07:14:58.039Z,8.17
2019-01-29T07:17:36.659Z,9.37
2019-01-29T07:20:11.561Z,10.77
2019-01-29T07:22:41.707Z,11.63
2019-01-29T07:25:12.534Z,9.63
2019-01-29T07:27:42.558Z,11.73
2019-01-29T07:30:15.201Z,17.07
2019-01-29T07:32:45.099Z,13.63
2019-01-29T07:35:15.015Z,14.63
2019-01-29T07:37:44.959Z,16.20
2019-01-29T07:40:15.445Z,12.43
2019-01-29T07:42:45.399Z,13.60
2019-01-29T07:45:15.928Z,17.70
2019-01-29T07:47:46.074Z,15.83
2019-01-29T07:50:16.125Z,13.13
2019-01-29T07:52:46.154Z,13.50
2019-01-29T07:55:16.051Z,14.47
2019-01-29T07:57:46.259Z,20.20
2019-01-29T08:00:16.609Z,13.20
2019-01-29T08:02:46.589Z,16.67
2019-01-29T08:05:16.626Z,17.83
2019-01-29T08:07:46.530Z,14.07
2019-01-29T08:10:16.868Z,16.67
2019-01-29T08:12:46.827Z,18.70
2019-01-29T08:15:17.182Z,17.03
2019-01-29T08:17:47.490Z,17.60
2019-01-29T08:20:17.926Z,18.83
2019-01-29T08:22:48.661Z,18.67
2019-01-29T08:25:19.874Z,16.20
2019-01-29T08:27:50.367Z,17.00
2019-01-29T08:30:20.766Z,16.17
2019-01-29T08:32:50.751Z,18.10
2019-01-29T08:35:21.213Z,13.43
2019-01-29T08:37:51.581Z,13.27
2019-01-29T08:40:21.896Z,15.77
2019-01-29T08:42:51.789Z,16.00
2019-01-29T08:45:22.038Z,16.83
2019-01-29T08:47:51.983Z,17.73
2019-01-29T08:50:23.523Z,13.63
2019-01-29T08:52:53.673Z,14.53
2019-01-29T08:55:23.879Z,12.70
2019-01-29T08:57:53.806Z,15.17
2019-01-29T09:00:24.093Z,16.87
2019-01-29T09:02:54.207Z,12.50
2019-01-29T09:05:24.540Z,14.50
2019-01-29T09:07:54.475Z,15.53
2019-01-29T09:10:24.715Z,14.83
2019-01-29T09:12:56.412Z,16.10
2019-01-29T09:15:26.334Z,16.40
2019-01-29T09:17:56.305Z,14.67
2019-01-29T09:20:26.457Z,15.47
2019-01-29T09:22:56.326Z,13.43
2019-01-29T09:25:26.355Z,18.37
2019-01-29T09:27:56.305Z,14.23
2019-01-29T09:30:26.363Z,13.03
2019-01-29T09:32:56.319Z,16.93
2019-01-29T09:35:26.541Z,15.37
2019-01-29T09:37:56.396Z,18.53
2019-01-29T09:40:26.358Z,17.23
2019-01-29T09:42:56.341Z,16.03
2019-01-29T09:45:26.803Z,15.10
2019-01-29T09:47:56.999Z,12.43
2019-01-29T09:50:27.461Z,16.20
2019-01-29T09:52:57.885Z,16.13
2019-01-29T09:55:29.439Z,16.90
2019-01-29T09:57:59.618Z,14.97
2019-01-29T10:00:32.922Z,15.93
2019-01-29T10:03:03.083Z,14.60
2019-01-29T10:05:33.170Z,13.13
2019-01-29T10:08:07.162Z,11.13
2019-01-29T10:10:37.142Z,10.10
2019-01-29T10:13:07.343Z,15.07
2019-01-29T10:15:37.998Z,15.90
2019-01-29T10:18:08.116Z,13.57
2019-01-29T10:20:38.345Z,16.43
2019-01-29T10:23:08.357Z,15.07
2019-01-29T10:25:38.331Z,16.73
2019-01-29T10:28:08.647Z,14.17
2019-01-29T10:30:38.595Z,13.63
2019-01-29T10:33:08.543Z,15.50
2019-01-29T10:35:38.581Z,14.00
2019-01-29T10:38:08.888Z,11.03
2019-01-29T10:40:38.931Z,14.27
2019-01-29T10:43:09.284Z,8.93
2019-01-29T10:45:39.443Z,10.57
2019-01-29T10:48:09.676Z,12.60
2019-01-29T10:50:39.842Z,14.80
2019-01-29T10:53:09.932Z,11.30
2019-01-29T10:55:47.030Z,14.30
2019-01-29T10:58:11.971Z,13.23
2019-01-29T11:00:42.417Z,16.00
2019-01-29T11:03:12.755Z,13.20
2019-01-29T11:05:42.734Z,15.97
2019-01-29T11:08:12.826Z,15.63
2019-01-29T11:10:43.059Z,13.50
2019-01-29T11:13:13.123Z,18.33
2019-01-29T11:15:44.140Z,13.40
2019-01-29T11:18:15.926Z,13.20
2019-01-29T11:20:46.321Z,15.17
2019-01-29T11:23:16.608Z,20.00
2019-01-29T11:25:55.405Z,16.33
2019-01-29T11:28:18.601Z,12.57
2019-01-29T11:30:48.721Z,20.23
2019-01-29T11:33:19.048Z,17.83
2019-01-29T11:35:49.411Z,17.03
2019-01-29T11:38:19.400Z,21.03
2019-01-29T11:40:49.375Z,17.00
2019-01-29T11:43:19.243Z,18.73
2019-01-29T11:45:52.758Z,16.07
2019-01-29T11:48:23.042Z,14.37
2019-01-29T11:50:53.051Z,21.67
2019-01-29T11:53:23.440Z,22.20
2019-01-29T11:58:47.205Z,23.30
2019-01-29T12:01:20.159Z,16.00
2019-01-29T12:03:50.224Z,21.67
2019-01-29T12:06:20.282Z,20.03
2019-01-29T12:08:50.457Z,16.70
2019-01-29T12:11:20.641Z,15.77
2019-01-29T12:13:50.597Z,20.20
2019-01-29T12:16:20.627Z,14.47
2019-01-29T12:18:50.503Z,15.67
2019-01-29T12:21:21.133Z,15.50
2019-01-29T12:23:51.138Z,13.00
2019-01-29T12:26:21.064Z,12.20
2019-01-29T12:28:51.012Z,15.17
2019-01-29T12:31:20.905Z,13.77
2019-01-29T12:33:50.891Z,16.00
2019-01-29T12:36:21.095Z,16.57
2019-01-29T12:38:51.045Z,10.87
2019-01-29T12:41:21.130Z,18.10
2019-01-29T12:43:51.254Z,14.60
2019-01-29T12:46:21.520Z,15.93
2019-01-29T12:48:51.406Z,13.40
2019-01-29T12:51:46.340Z,12.90
2019-01-29T12:54:16.331Z,15.97
2019-01-29T12:56:46.317Z,10.27
2019-01-29T12:59:16.189Z,10.10
2019-01-29T13:01:46.575Z,14.97
2019-01-29T13:04:16.700Z,16.13
2019-01-29T13:06:46.617Z,11.57
2019-01-29T13:09:16.634Z,9.53
2019-01-29T13:11:49.439Z,15.17
2019-01-29T13:14:19.337Z,12.87
2019-01-29T13:16:49.459Z,13.33
2019-01-29T13:19:19.361Z,11.30
2019-01-29T13:21:49.488Z,14.07
2019-01-29T13:24:19.375Z,15.70
2019-01-29T13:26:49.293Z,10.33
2019-01-29T13:29:19.520Z,14.67
2019-01-29T13:31:49.402Z,17.23
2019-01-29T13:34:19.271Z,12.07
2019-01-29T13:36:49.393Z,15.93
2019-01-29T13:39:19.283Z,12.90
2019-01-29T13:41:49.170Z,10.97
2019-01-29T13:44:19.061Z,10.17
2019-01-29T13:46:48.978Z,10.07
2019-01-29T13:49:18.967Z,11.97
2019-01-29T13:51:49.086Z,8.20
2019-01-29T13:54:19.432Z,10.10
2019-01-29T13:56:49.564Z,27.63
2019-01-29T13:59:19.472Z,17.40
2019-01-29T14:01:49.515Z,27.10
2019-01-29T14:04:19.637Z,15.27
2019-01-29T14:06:49.553Z,12.90
2019-01-29T14:09:19.665Z,15.23
2019-01-29T14:11:49.642Z,17.23
2019-01-29T14:14:19.766Z,14.87
2019-01-29T14:16:49.656Z,9.13
2019-01-29T14:19:19.532Z,13.50
2019-01-29T14:21:49.440Z,11.83
2019-01-29T14:24:19.324Z,6.90
2019-01-29T14:26:49.209Z,13.47
2019-01-29T14:29:19.215Z,9.63
2019-01-29T14:31:49.351Z,8.40
2019-01-29T14:34:19.467Z,12.13
2019-01-29T14:36:49.523Z,12.40
2019-01-29T14:40:19.276Z,8.57
2019-01-29T14:42:50.992Z,12.10
2019-01-29T14:45:25.349Z,10.10
2019-01-29T14:47:55.343Z,12.07
2019-01-29T14:50:26.315Z,9.93
2019-01-29T14:52:56.383Z,9.37
2019-01-29T14:55:26.821Z,10.83
2019-01-29T14:57:56.887Z,17.07
2019-01-29T15:00:27.612Z,12.67
2019-01-29T15:02:57.544Z,12.47
2019-01-29T15:05:27.573Z,10.83
2019-01-29T15:07:57.638Z,16.40
2019-01-29T15:10:27.965Z,13.60
2019-01-29T15:12:58.100Z,11.17
2019-01-29T15:15:29.020Z,16.03
2019-01-29T15:18:02.442Z,15.10
2019-01-29T15:20:32.370Z,12.67
2019-01-29T15:23:02.377Z,12.33
2019-01-29T15:25:32.282Z,16.90
2019-01-29T15:28:02.327Z,12.27
2019-01-29T15:30:32.440Z,12.30
2019-01-29T15:33:02.621Z,11.47
2019-01-29T15:35:32.528Z,15.07
2019-01-29T15:38:02.459Z,16.10
2019-01-29T15:40:32.361Z,12.67
2019-01-29T15:43:02.455Z,19.53
2019-01-29T15:45:32.561Z,14.87
2019-01-29T15:48:02.477Z,11.27
2019-01-29T15:50:33.157Z,19.10
2019-01-29T15:53:03.342Z,12.77
2019-01-29T15:55:33.488Z,16.13
2019-01-29T15:58:03.683Z,15.83
2019-01-29T16:00:33.986Z,25.03
2019-01-29T16:03:04.465Z,16.53
2019-01-29T16:05:35.040Z,13.93
2019-01-29T16:08:06.345Z,15.63
2019-01-29T16:10:39.680Z,16.77
2019-01-29T16:13:08.249Z,16.73
2019-01-29T16:15:38.494Z,13.60
2019-01-29T16:18:08.715Z,18.40
2019-01-29T16:20:38.740Z,17.67
2019-01-29T16:23:08.862Z,19.20
2019-01-29T16:25:39.441Z,17.10
2019-01-29T16:28:09.409Z,16.33
2019-01-29T16:30:39.799Z,17.67
2019-01-29T16:33:09.782Z,16.37
2019-01-29T16:35:39.813Z,14.80
2019-01-29T16:38:10.588Z,14.40
2019-01-29T16:40:41.087Z,15.60
2019-01-29T16:43:11.047Z,19.90
2019-01-29T16:45:43.404Z,14.73
2019-01-29T16:48:14.074Z,15.30
2019-01-29T16:50:44.061Z,16.70
2019-01-29T16:53:14.088Z,17.77
2019-01-29T16:55:44.145Z,14.93
2019-01-29T16:58:14.054Z,21.90
2019-01-29T17:00:44.826Z,18.53
2019-01-29T17:03:14.710Z,21.30
2019-01-29T17:05:44.989Z,15.47
2019-01-29T17:08:15.064Z,17.50
2019-01-29T17:10:45.383Z,15.80
2019-01-29T17:13:15.318Z,13.90
2019-01-29T17:15:46.272Z,17.37
2019-01-29T17:18:16.394Z,15.60
2019-01-29T17:20:46.885Z,16.07
2019-01-29T17:23:18.130Z,16.90
2019-01-29T17:25:48.026Z,15.77
2019-01-29T17:28:18.029Z,13.20
2019-01-29T17:30:47.893Z,17.07
2019-01-29T17:33:18.571Z,16.07
2019-01-29T17:35:48.906Z,13.13
2019-01-29T17:38:18.803Z,16.70
2019-01-29T17:40:49.322Z,21.67
2019-01-29T17:43:19.515Z,18.77
2019-01-29T17:45:50.842Z,11.23
2019-01-29T17:48:20.724Z,13.93
2019-01-29T17:50:51.307Z,16.87
2019-01-29T17:53:21.242Z,17.13
2019-01-29T17:55:51.861Z,18.70
2019-01-29T17:58:22.101Z,16.23
2019-01-29T18:00:58.250Z,17.63
2019-01-29T18:03:28.705Z,21.97
2019-01-29T18:05:58.745Z,16.27
2019-01-29T18:08:28.749Z,16.03
2019-01-29T18:10:58.721Z,16.03
2019-01-29T18:13:28.729Z,17.60
2019-01-29T18:15:58.613Z,14.13
2019-01-29T18:18:28.789Z,16.80
2019-01-29T18:20:58.944Z,19.63
2019-01-29T18:23:28.823Z,18.53
2019-01-29T18:25:58.729Z,12.10
2019-01-29T18:28:28.615Z,11.20
2019-01-29T18:30:58.509Z,13.87
2019-01-29T18:33:28.424Z,16.77
2019-01-29T18:35:58.510Z,12.77
2019-01-29T18:38:28.667Z,14.10
2019-01-29T18:40:58.922Z,18.03
2019-01-29T18:43:29.338Z,12.33
2019-01-29T18:45:59.444Z,18.23
2019-01-29T18:48:29.647Z,15.10
2019-01-29T18:50:59.768Z,13.17
2019-01-29T18:53:29.751Z,17.00
2019-01-29T18:55:59.637Z,15.70
2019-01-29T18:58:29.527Z,19.27
2019-01-29T19:00:59.386Z,16.97
2019-01-29T19:03:29.283Z,19.03
2019-01-29T19:05:59.237Z,15.90
2019-01-29T19:08:29.372Z,17.07
2019-01-29T19:10:59.341Z,15.43
2019-01-29T19:13:29.552Z,14.73
2019-01-29T19:15:59.520Z,16.07
2019-01-29T19:18:29.768Z,22.17
2019-01-29T19:20:59.989Z,17.20
2019-01-29T19:23:30.131Z,13.33
2019-01-29T19:26:00.803Z,15.27
2019-01-29T19:28:30.924Z,15.87
2019-01-29T19:31:01.044Z,18.87
2019-01-29T19:33:31.480Z,17.30
2019-01-29T19:36:01.391Z,13.43
2019-01-29T19:38:31.507Z,16.97
2019-01-29T19:41:01.384Z,16.27
2019-01-29T19:43:31.359Z,15.27
2019-01-29T19:46:01.496Z,14.33
2019-01-29T19:48:31.992Z,13.53
2019-01-29T19:51:02.904Z,12.47
2019-01-29T19:53:32.878Z,16.97
2019-01-29T19:56:04.266Z,14.57
2019-01-29T19:58:35.517Z,16.10
2019-01-29T20:01:07.021Z,20.20
2019-01-29T20:03:36.899Z,15.93
2019-01-29T20:06:07.859Z,15.13
2019-01-29T20:08:38.394Z,18.30
2019-01-29T20:11:08.716Z,14.60
2019-01-29T20:13:39.390Z,16.03
2019-01-29T20:16:09.535Z,15.87
2019-01-29T20:18:41.093Z,13.70
2019-01-29T20:21:11.578Z,12.40
2019-01-29T20:23:43.682Z,17.33
2019-01-29T20:26:13.667Z,18.70
2019-01-29T20:28:44.227Z,11.90
2019-01-29T20:31:15.563Z,17.87
2019-01-29T20:33:46.138Z,14.83
2019-01-29T20:36:16.158Z,19.00
2019-01-29T20:38:46.199Z,13.50
2019-01-29T20:41:16.178Z,15.43
2019-01-29T20:43:46.449Z,14.63
2019-01-29T20:46:17.686Z,12.60
2019-01-29T20:48:48.744Z,10.20
2019-01-29T20:51:19.289Z,13.07
2019-01-29T20:53:49.530Z,16.70
2019-01-29T20:56:20.924Z,13.37
2019-01-29T20:58:52.785Z,15.07
2019-01-29T21:01:23.112Z,15.73
2019-01-29T21:03:53.195Z,16.03
2019-01-29T21:06:23.639Z,13.83
2019-01-29T21:08:53.570Z,13.27
2019-01-29T21:11:23.560Z,14.30
2019-01-29T21:13:53.755Z,12.03
2019-01-29T21:16:23.749Z,13.43
2019-01-29T21:18:53.975Z,11.47
2019-01-29T21:21:25.025Z,15.57
2019-01-29T21:23:55.767Z,13.63
2019-01-29T21:26:25.736Z,12.53
2019-01-29T21:29:02.758Z,13.27
2019-01-29T21:31:28.692Z,13.63
2019-01-29T21:33:59.672Z,17.83
2019-01-29T21:36:30.444Z,11.23
2019-01-29T21:39:01.173Z,13.90
2019-01-29T21:41:31.571Z,13.67
2019-01-29T21:44:01.847Z,9.87
2019-01-29T21:46:32.485Z,12.83
2019-01-29T21:49:02.462Z,13.93
2019-01-29T21:51:33.560Z,15.57
2019-01-29T21:54:04.977Z,12.43
2019-01-29T21:56:34.887Z,16.43
2019-01-29T21:59:13.119Z,13.03
2019-01-29T22:01:37.677Z,12.63
2019-01-29T22:04:08.642Z,12.93
2019-01-29T22:06:40.553Z,15.93
2019-01-29T22:09:11.179Z,12.00
2019-01-29T22:11:41.076Z,15.00
2019-01-29T22:14:11.055Z,15.77
2019-01-29T22:16:41.267Z,12.57
2019-01-29T22:19:11.173Z,13.80
2019-01-29T22:21:41.077Z,11.27
2019-01-29T22:24:11.766Z,12.60
2019-01-29T22:26:42.396Z,14.27
2019-01-29T22:29:12.633Z,15.47
2019-01-29T22:31:43.450Z,14.67
2019-01-29T22:34:14.577Z,19.73
2019-01-29T22:36:45.381Z,13.03
2019-01-29T22:39:16.730Z,13.63
2019-01-29T22:41:46.640Z,11.77
2019-01-29T22:44:17.153Z,12.83
2019-01-29T22:46:47.067Z,15.43
2019-01-29T22:49:16.970Z,12.50
2019-01-29T22:51:46.893Z,13.10
2019-01-29T22:54:16.799Z,17.93
2019-01-29T22:56:46.756Z,14.80
2019-01-29T22:59:18.346Z,17.60
2019-01-29T23:01:49.663Z,14.03
2019-01-29T23:04:28.872Z,17.70
2019-01-29T23:07:13.295Z,14.80
2019-01-29T23:09:43.812Z,16.33
2019-01-29T23:12:13.792Z,17.37
2019-01-29T23:14:43.825Z,16.00
2019-01-29T23:17:14.063Z,17.33
2019-01-29T23:19:44.264Z,19.73
2019-01-29T23:22:14.159Z,14.80
2019-01-29T23:24:44.389Z,18.27
2019-01-29T23:27:14.276Z,17.07
2019-01-29T23:29:44.237Z,15.60
2019-01-29T23:32:14.312Z,17.27
2019-01-29T23:34:44.336Z,19.13
2019-01-29T23:37:14.271Z,14.17
2019-01-29T23:39:44.377Z,16.70
2019-01-29T23:42:14.569Z,14.97
2019-01-29T23:44:44.838Z,13.50
2019-01-29T23:47:14.900Z,15.13
2019-01-29T23:49:44.809Z,17.97
2019-01-29T23:52:14.830Z,15.40
2019-01-29T23:54:44.732Z,20.93
2019-01-29T23:57:14.707Z,23.93
2019-01-29T23:59:53.573Z,19.43
